Time;durP1;ratioP1;P1;durP2;ratioP2;P2;SDS_P1;SDS_P2;PMS_P1;PMS_P2;Temp;Humidity;BMP_temperature;BMP_pressure;BME280_temperature;BME280_humidity;BME280_pressure;Samples;Min_cycle;Max_cycle;Signal;HPM_P1;HPM_P2
2021/05/27 00:00:14;;;;;;;;;;;;;;;21.36;52.67;100861.06;5076175;28;819;-49
2021/05/27 00:02:40;;;;;;;;;;;;;;;21.61;55.03;100853.44;5076631;28;1915;-54
2021/05/27 00:05:06;;;;;;;;;;;;;;;21.81;54.03;100850.28;5076804;28;803;-54
2021/05/27 00:07:31;;;;;;;;;;;;;;;21.76;53.10;100844.03;5076288;28;811;-54
2021/05/27 00:09:57;;;;;;;;;;;;;;;21.52;52.48;100845.03;5076357;28;1092;-50
2021/05/27 00:12:22;;;;;;;;;;;;;;;21.57;51.44;100838.59;5076453;28;1084;-54
2021/05/27 00:14:48;;;;;;;;;;;;;;;21.35;51.09;100835.34;5075848;28;959;-56
2021/05/27 00:17:15;;;;;;;;;;;;;;;21.31;51.19;100839.84;5076643;28;751;-52
2021/05/27 00:19:40;;;;;;;;;;;;;;;21.58;51.42;100831.94;5076457;28;767;-56
2021/05/27 00:22:05;;;;;;;;;;;;;;;21.45;52.76;100828.00;5075900;28;756;-48
2021/05/27 00:24:31;;;;;;;;;;;;;;;21.68;52.45;100831.72;5076420;28;1987;-48
2021/05/27 00:26:56;;;;;;;;;;;;;;;21.72;52.98;100826.41;5076542;28;775;-50
2021/05/27 00:29:22;;;;;;;;;;;;;;;21.71;53.36;100822.78;5075672;28;935;-50
2021/05/27 00:31:47;;;;;;;;;;;;;;;21.84;53.29;100810.09;5076477;28;784;-50
2021/05/27 00:34:12;;;;;;;;;;;;;;;21.88;53.28;100811.94;5076272;28;751;-56
2021/05/27 00:36:38;;;;;;;;;;;;;;;21.92;53.38;100812.13;5058404;28;1146;-56
2021/05/27 00:39:04;;;;;;;;;;;;;;;21.77;53.71;100807.75;5076180;28;769;-53
2021/05/27 00:41:29;;;;;;;;;;;;;;;22.03;53.26;100809.97;5076199;28;784;-59
2021/05/27 00:43:55;;;;;;;;;;;;;;;22.00;53.49;100805.06;5075485;28;1906;-55
2021/05/27 00:46:20;;;;;;;;;;;;;;;22.05;53.12;100800.22;5076477;28;786;-53
2021/05/27 00:51:24;;;;;;;;;;;;;;;21.86;54.00;100788.47;5075833;28;799;-48
2021/05/27 00:53:49;;;;;;;;;;;;;;;22.07;53.47;100790.78;5076139;28;790;-57
2021/05/27 00:56:15;;;;;;;;;;;;;;;22.30;52.83;100792.47;5076026;28;791;-49
2021/05/27 00:58:41;;;;;;;;;;;;;;;22.15;53.17;100785.34;5048981;28;923;-50
2021/05/27 01:01:07;;;;;;;;;;;;;;;22.11;53.28;100789.03;5056001;28;768;-49
2021/05/27 01:03:34;;;;;;;;;;;;;;;22.19;53.29;100791.88;5041602;28;1978;-53
2021/05/27 01:06:00;;;;;;;;;;;;;;;22.09;53.54;100796.81;5041673;28;1577;-51
2021/05/27 01:08:31;;;;;;;;;;;;;;;22.21;53.26;100789.63;5042270;28;1114;-50
2021/05/27 01:10:56;;;;;;;;;;;;;;;22.27;53.06;100795.03;5075961;28;1345;-49
2021/05/27 01:13:24;;;;;;;;;;;;;;;22.42;52.62;100791.13;5079156;28;1035;-49
2021/05/27 01:15:49;;;;;;;;;;;;;;;22.32;52.70;100783.84;5079898;28;816;-49
2021/05/27 01:18:15;;;;;;;;;;;;;;;21.58;54.73;100790.44;5079614;28;779;-52
2021/05/27 01:20:45;;;;;;;;;;;;;;;21.23;55.82;100781.66;5079227;28;759;-51
2021/05/27 01:23:10;;;;;;;;;;;;;;;21.08;55.07;100772.50;5079836;28;1910;-47
2021/05/27 01:25:44;;;;;;;;;;;;;;;21.41;55.55;100769.69;5079571;28;944;-48
2021/05/27 01:28:10;;;;;;;;;;;;;;;21.70;54.89;100768.59;5061126;28;1349;-49
2021/05/27 01:30:35;;;;;;;;;;;;;;;21.84;54.27;100772.16;5079579;28;752;-51
2021/05/27 01:33:01;;;;;;;;;;;;;;;22.15;53.28;100771.47;5061754;28;1637;-52
2021/05/27 01:35:26;;;;;;;;;;;;;;;22.19;53.23;100772.50;5079056;28;958;-49
2021/05/27 01:37:53;;;;;;;;;;;;;;;21.77;54.30;100769.00;5079451;28;810;-53
2021/05/27 01:40:20;;;;;;;;;;;;;;;21.62;54.75;100766.56;5079052;28;772;-50
2021/05/27 01:42:45;;;;;;;;;;;;;;;21.31;53.37;100767.13;5078793;28;1905;-56
2021/05/27 01:45:11;;;;;;;;;;;;;;;21.42;55.10;100767.72;5079341;28;775;-51
2021/05/27 01:47:37;;;;;;;;;;;;;;;21.76;54.62;100772.88;5061098;28;1544;-55
2021/05/27 01:50:04;;;;;;;;;;;;;;;21.98;53.70;100768.53;5061176;28;1153;-51
2021/05/27 01:52:30;;;;;;;;;;;;;;;21.97;53.83;100764.97;5061498;28;1292;-52
2021/05/27 01:54:56;;;;;;;;;;;;;;;22.01;53.36;100756.88;5061182;28;1130;-56
2021/05/27 01:57:22;;;;;;;;;;;;;;;21.61;54.82;100753.84;5061263;28;1122;-55
2021/05/27 01:59:47;;;;;;;;;;;;;;;21.24;55.54;100767.53;5043128;28;1233;-51
2021/05/27 02:02:16;;;;;;;;;;;;;;;21.13;55.28;100758.59;5040891;28;811;-57
2021/05/27 02:04:43;;;;;;;;;;;;;;;21.28;53.72;100756.66;5058612;28;2064;-55
2021/05/27 02:07:12;;;;;;;;;;;;;;;21.36;53.09;100755.94;5058797;28;807;-55
2021/05/27 02:09:38;;;;;;;;;;;;;;;21.47;52.80;100754.63;5046546;28;1170;-53
2021/05/27 02:12:04;;;;;;;;;;;;;;;21.68;53.36;100760.56;5060462;28;1564;-50
2021/05/27 02:14:30;;;;;;;;;;;;;;;21.67;54.19;100755.34;5077728;28;954;-55
2021/05/27 02:16:56;;;;;;;;;;;;;;;21.90;54.04;100759.03;5044404;28;1242;-55
2021/05/27 02:19:22;;;;;;;;;;;;;;;21.86;53.49;100747.75;5078262;28;847;-51
2021/05/27 02:21:49;;;;;;;;;;;;;;;21.82;52.83;100749.50;5078580;28;783;-55
2021/05/27 02:24:19;;;;;;;;;;;;;;;21.75;51.78;100743.56;5078951;28;1910;-56
2021/05/27 02:26:45;;;;;;;;;;;;;;;21.58;51.31;100737.84;5060609;28;1249;-55
2021/05/27 02:29:12;;;;;;;;;;;;;;;21.58;51.08;100743.38;5078276;28;954;-56
2021/05/27 02:31:40;;;;;;;;;;;;;;;21.65;52.06;100732.72;5078682;28;783;-57
2021/05/27 02:34:08;;;;;;;;;;;;;;;21.75;53.39;100728.91;5060375;28;1119;-57
2021/05/27 02:36:36;;;;;;;;;;;;;;;21.86;53.92;100720.06;5078507;28;822;-54
2021/05/27 02:39:04;;;;;;;;;;;;;;;22.13;53.73;100726.69;5078165;28;748;-53
2021/05/27 02:41:39;;;;;;;;;;;;;;;22.06;53.57;100734.56;5078513;28;818;-57
2021/05/27 02:44:06;;;;;;;;;;;;;;;21.69;54.69;100762.22;5077642;28;1913;-57
2021/05/27 02:46:37;;;;;;;;;;;;;;;21.45;54.65;100778.22;5060419;28;1127;-54
2021/05/27 02:49:03;;;;;;;;;;;;;;;21.25;54.01;100776.63;5077742;28;828;-52
2021/05/27 02:51:29;;;;;;;;;;;;;;;21.31;55.20;100781.78;5077837;28;791;-54
2021/05/27 02:53:54;;;;;;;;;;;;;;;21.36;54.92;100789.13;5060306;28;1091;-57
2021/05/27 02:56:19;;;;;;;;;;;;;;;21.60;54.21;100797.31;5078197;28;782;-51
2021/05/27 02:58:47;;;;;;;;;;;;;;;21.62;54.00;100805.28;5059788;28;1135;-52
2021/05/27 03:01:14;;;;;;;;;;;;;;;21.48;54.15;100822.66;5078222;28;744;-57
2021/05/27 03:03:48;;;;;;;;;;;;;;;21.62;53.71;100830.19;5077499;28;1967;-56
2021/05/27 03:06:15;;;;;;;;;;;;;;;21.72;53.71;100831.94;5059841;28;1344;-52
2021/05/27 03:08:42;;;;;;;;;;;;;;;21.70;53.56;100829.47;5060106;28;1150;-58
2021/05/27 03:11:08;;;;;;;;;;;;;;;21.69;53.61;100831.41;5077438;28;1140;-58
2021/05/27 03:13:36;;;;;;;;;;;;;;;21.81;53.47;100832.84;5051153;28;1377;-54
2021/05/27 03:16:02;;;;;;;;;;;;;;;21.73;53.76;100831.63;5039462;28;1194;-59
2021/05/27 03:18:30;;;;;;;;;;;;;;;21.87;53.31;100834.41;5057221;28;787;-57
2021/05/27 03:20:58;;;;;;;;;;;;;;;21.83;53.64;100839.72;5057232;28;823;-60
2021/05/27 03:23:26;;;;;;;;;;;;;;;21.76;53.85;100844.03;5058278;28;1975;-45
2021/05/27 03:25:52;;;;;;;;;;;;;;;21.78;53.86;100836.22;5038374;28;1151;-48
2021/05/27 03:28:18;;;;;;;;;;;;;;;21.97;53.24;100849.97;5039081;28;1139;-45
2021/05/27 03:30:43;;;;;;;;;;;;;;;22.05;53.05;100850.06;5057154;28;816;-50
2021/05/27 03:33:10;;;;;;;;;;;;;;;21.94;53.33;100850.59;5039338;28;1138;-63
2021/05/27 03:35:35;;;;;;;;;;;;;;;21.94;53.51;100845.88;5057554;28;776;-51
2021/05/27 03:38:03;;;;;;;;;;;;;;;21.93;53.38;100846.19;5057021;28;839;-60
2021/05/27 03:40:29;;;;;;;;;;;;;;;22.03;53.26;100843.19;5039334;28;1099;-47
2021/05/27 03:42:55;;;;;;;;;;;;;;;21.99;53.08;100842.16;5058320;28;1985;-46
2021/05/27 03:45:21;;;;;;;;;;;;;;;22.13;52.95;100842.16;5068873;28;1449;-45
2021/05/27 03:48:08;;;;;;;;;;;;;;;22.03;53.10;100848.72;5076480;28;760;-63
2021/05/27 03:50:34;;;;;;;;;;;;;;;22.25;52.49;100844.41;5075557;28;1060;-45
2021/05/27 03:53:04;;;;;;;;;;;;;;;22.15;52.94;100846.25;5088612;28;841;-46
2021/05/27 03:55:29;;;;;;;;;;;;;;;21.56;54.33;100840.53;5078674;28;1098;-46
2021/05/27 03:57:57;;;;;;;;;;;;;;;21.14;55.68;100847.88;5076111;28;1146;-53
2021/05/27 04:03:23;;;;;;;;;;;;;;;21.51;54.44;100849.72;5058219;28;1914;-48
2021/05/27 04:08:32;;;;;;;;;;;;;;;22.23;52.57;100850.22;5077385;28;770;-62
2021/05/27 04:10:58;;;;;;;;;;;;;;;22.09;52.62;100847.50;5054423;28;1147;-63
2021/05/27 04:13:23;;;;;;;;;;;;;;;21.93;53.25;100843.41;5049857;28;1372;-57
2021/05/27 04:15:49;;;;;;;;;;;;;;;21.75;53.05;100848.72;5066080;28;1136;-60
2021/05/27 04:18:15;;;;;;;;;;;;;;;21.46;52.54;100844.28;5076313;28;771;-59
2021/05/27 04:20:42;;;;;;;;;;;;;;;21.72;54.21;100849.34;5077075;28;744;-58
2021/05/27 04:23:08;;;;;;;;;;;;;;;22.19;52.63;100847.28;5076479;28;1921;-56
2021/05/27 04:25:34;;;;;;;;;;;;;;;22.29;52.26;100850.97;5076352;28;796;-45
2021/05/27 04:28:00;;;;;;;;;;;;;;;21.91;53.27;100854.81;5076510;28;967;-49
2021/05/27 04:30:26;;;;;;;;;;;;;;;21.71;54.22;100858.78;5076323;28;804;-48
2021/05/27 04:35:23;;;;;;;;;;;;;;;21.37;53.65;100863.50;5076414;28;752;-62
2021/05/27 04:37:48;;;;;;;;;;;;;;;21.77;53.97;100862.25;5076211;28;772;-61
2021/05/27 04:40:14;;;;;;;;;;;;;;;22.17;52.75;100863.38;5075951;28;814;-60
2021/05/27 04:42:39;;;;;;;;;;;;;;;22.48;51.81;100854.44;5076091;28;1984;-64
2021/05/27 04:45:05;;;;;;;;;;;;;;;22.58;51.58;100860.88;5076228;28;772;-65
2021/05/27 04:47:30;;;;;;;;;;;;;;;21.88;53.49;100852.63;5075827;28;748;-64
2021/05/27 04:49:56;;;;;;;;;;;;;;;21.93;52.90;100854.50;5076202;28;791;-46
2021/05/27 04:52:21;;;;;;;;;;;;;;;21.59;51.71;100850.16;5076172;28;747;-47
2021/05/27 04:54:47;;;;;;;;;;;;;;;21.50;52.55;100858.31;5076132;28;768;-46
2021/05/27 04:57:12;;;;;;;;;;;;;;;21.80;54.05;100856.94;5076488;28;796;-49
2021/05/27 04:59:38;;;;;;;;;;;;;;;22.27;52.70;100853.22;5075800;28;954;-48
2021/05/27 05:02:03;;;;;;;;;;;;;;;22.26;52.48;100846.03;5075699;28;760;-48
2021/05/27 05:04:28;;;;;;;;;;;;;;;21.77;52.67;100848.44;5076084;28;1973;-45
2021/05/27 05:06:54;;;;;;;;;;;;;;;21.63;53.53;100846.47;5075990;28;788;-52
2021/05/27 05:09:19;;;;;;;;;;;;;;;21.51;51.51;100843.38;5075680;28;1143;-64
2021/05/27 05:11:45;;;;;;;;;;;;;;;21.82;53.39;100840.84;5076231;28;820;-51
2021/05/27 05:14:10;;;;;;;;;;;;;;;22.11;53.14;100839.69;5075622;28;1065;-61
2021/05/27 05:16:36;;;;;;;;;;;;;;;22.48;51.84;100826.72;5075790;28;1000;-50
2021/05/27 05:19:01;;;;;;;;;;;;;;;22.26;52.49;100812.78;5075669;28;768;-49
2021/05/27 05:21:26;;;;;;;;;;;;;;;22.07;52.87;100805.44;5076127;28;871;-52
2021/05/27 05:23:52;;;;;;;;;;;;;;;21.47;52.59;100793.34;5075838;28;1910;-50
2021/05/27 05:26:17;;;;;;;;;;;;;;;21.44;54.68;100793.97;5075668;28;994;-49
2021/05/27 05:28:43;;;;;;;;;;;;;;;21.59;54.19;100780.97;5075494;28;966;-61
2021/05/27 05:31:08;;;;;;;;;;;;;;;21.81;53.73;100783.03;5075768;28;788;-48
2021/05/27 05:33:34;;;;;;;;;;;;;;;21.85;53.57;100773.81;5075564;28;851;-48
2021/05/27 05:35:59;;;;;;;;;;;;;;;21.92;53.26;100775.31;5075782;28;870;-46
2021/05/27 05:38:25;;;;;;;;;;;;;;;21.92;53.14;100762.28;5076270;28;743;-60
2021/05/27 05:40:50;;;;;;;;;;;;;;;22.01;52.90;100756.88;5075985;28;775;-48
2021/05/27 05:43:15;;;;;;;;;;;;;;;22.07;52.84;100739.00;5075349;28;1977;-46
2021/05/27 05:45:41;;;;;;;;;;;;;;;22.14;52.65;100716.41;5075682;28;874;-46
2021/05/27 05:48:08;;;;;;;;;;;;;;;21.98;53.08;100707.63;5075427;28;844;-50
2021/05/27 05:50:46;;;;;;;;;;;;;;;21.95;53.15;100681.41;5078542;28;852;-62
2021/05/27 05:53:12;;;;;;;;;;;;;;;22.00;52.96;100664.66;5079265;28;752;-65
2021/05/27 05:55:38;;;;;;;;;;;;;;;22.01;52.81;100682.09;5078905;28;839;-50
2021/05/27 05:58:03;;;;;;;;;;;;;;;21.82;53.43;100687.78;5078688;28;935;-65
2021/05/27 06:00:29;;;;;;;;;;;;;;;22.08;52.90;100703.81;5079056;28;755;-65
2021/05/27 06:02:55;;;;;;;;;;;;;;;21.79;53.76;100721.63;5078697;28;1973;-52
2021/05/27 06:05:40;;;;;;;;;;;;;;;21.94;53.21;100739.88;5078636;28;992;-50
2021/05/27 06:08:17;;;;;;;;;;;;;;;22.08;52.89;100739.81;5061018;28;1237;-55
2021/05/27 06:10:42;;;;;;;;;;;;;;;22.10;52.61;100749.44;5078534;28;1150;-67
2021/05/27 06:13:08;;;;;;;;;;;;;;;22.11;52.83;100761.34;5078428;28;979;-60
2021/05/27 06:15:33;;;;;;;;;;;;;;;22.26;52.25;100768.47;5079740;28;1437;-62
2021/05/27 06:17:59;;;;;;;;;;;;;;;22.23;52.69;100783.75;5088794;28;736;-65
2021/05/27 06:20:25;;;;;;;;;;;;;;;22.17;52.52;100796.09;5098565;28;1562;-52
2021/05/27 06:22:51;;;;;;;;;;;;;;;21.72;54.02;100793.19;5098872;28;1964;-57
2021/05/27 06:25:17;;;;;;;;;;;;;;;21.36;54.87;100792.75;5098640;28;708;-54
2021/05/27 06:27:42;;;;;;;;;;;;;;;21.10;54.46;100788.81;5097718;28;1001;-70
2021/05/27 06:30:08;;;;;;;;;;;;;;;21.24;55.41;100791.56;5078429;28;749;-52
2021/05/27 06:32:37;;;;;;;;;;;;;;;21.67;54.39;100796.88;5078459;28;752;-58
2021/05/27 06:35:07;;;;;;;;;;;;;;;22.08;52.93;100789.63;5078472;28;744;-49
2021/05/27 06:37:36;;;;;;;;;;;;;;;22.26;52.40;100793.41;5078718;28;775;-61
2021/05/27 06:40:02;;;;;;;;;;;;;;;21.94;53.23;100800.78;5078296;28;784;-60
2021/05/27 06:42:29;;;;;;;;;;;;;;;21.96;53.50;100796.53;5060516;28;1256;-49
2021/05/27 06:44:54;;;;;;;;;;;;;;;21.61;51.43;100798.09;5077966;28;981;-54
2021/05/27 06:47:20;;;;;;;;;;;;;;;21.72;51.43;100794.00;5078465;28;752;-61
2021/05/27 06:49:45;;;;;;;;;;;;;;;21.96;53.80;100795.72;5078112;28;1399;-51
2021/05/27 06:52:10;;;;;;;;;;;;;;;22.29;52.44;100796.38;5078145;28;752;-53
2021/05/27 06:54:36;;;;;;;;;;;;;;;22.44;52.20;100795.25;5082884;28;1507;-60
2021/05/27 06:57:01;;;;;;;;;;;;;;;22.13;52.96;100804.22;5084439;28;807;-46
2021/05/27 06:59:27;;;;;;;;;;;;;;;21.87;53.29;100798.41;5077972;28;1014;-53
2021/05/27 07:01:52;;;;;;;;;;;;;;;21.17;52.07;100801.09;5077660;28;744;-66
2021/05/27 07:04:18;;;;;;;;;;;;;;;21.45;54.81;100805.88;5077593;28;1957;-46
2021/05/27 07:06:43;;;;;;;;;;;;;;;21.72;54.15;100805.06;5078120;28;822;-49
2021/05/27 07:09:09;;;;;;;;;;;;;;;22.00;53.74;100807.81;5077214;28;1190;-64
2021/05/27 07:11:34;;;;;;;;;;;;;;;22.34;52.52;100806.53;5077741;28;898;-61
2021/05/27 07:14:00;;;;;;;;;;;;;;;22.58;51.87;100814.59;5077349;28;963;-53
2021/05/27 07:16:28;;;;;;;;;;;;;;;22.32;52.49;100811.56;5077063;28;1051;-64
2021/05/27 07:18:54;;;;;;;;;;;;;;;21.84;53.66;100810.09;5077352;28;795;-46
2021/05/27 07:21:19;;;;;;;;;;;;;;;21.10;53.89;100811.75;5077573;28;791;-55
2021/05/27 07:23:44;;;;;;;;;;;;;;;21.29;53.42;100813.63;5077072;28;1918;-66
2021/05/27 07:26:10;;;;;;;;;;;;;;;21.47;51.98;100821.00;5077393;28;859;-46
2021/05/27 07:28:35;;;;;;;;;;;;;;;21.69;51.76;100822.31;5059270;28;1217;-57
2021/05/27 07:31:01;;;;;;;;;;;;;;;21.79;51.90;100822.09;5076989;28;739;-49
2021/05/27 07:33:26;;;;;;;;;;;;;;;21.90;52.16;100816.34;5077194;28;806;-63
2021/05/27 07:35:52;;;;;;;;;;;;;;;21.85;52.55;100812.56;5077251;28;740;-50
2021/05/27 07:38:17;;;;;;;;;;;;;;;21.87;52.97;100807.53;5076825;28;783;-50
2021/05/27 07:40:45;;;;;;;;;;;;;;;21.83;53.26;100808.47;5058687;28;857;-60
2021/05/27 07:43:12;;;;;;;;;;;;;;;22.04;52.95;100801.34;5076795;28;1968;-63
2021/05/27 07:45:37;;;;;;;;;;;;;;;22.01;53.15;100804.75;5076593;28;767;-52
2021/05/27 07:48:03;;;;;;;;;;;;;;;22.07;53.12;100810.97;5077032;28;815;-48
2021/05/27 07:50:28;;;;;;;;;;;;;;;22.09;53.22;100803.19;5076933;28;815;-62
2021/05/27 07:52:55;;;;;;;;;;;;;;;22.11;52.98;100803.69;5076453;28;835;-58
2021/05/27 07:55:20;;;;;;;;;;;;;;;22.07;53.13;100799.09;5059016;28;1126;-59
2021/05/27 07:57:46;;;;;;;;;;;;;;;22.16;53.03;100797.22;5076486;28;1022;-62
2021/05/27 08:00:11;;;;;;;;;;;;;;;22.11;52.89;100791.81;5076254;28;756;-60
2021/05/27 08:02:40;;;;;;;;;;;;;;;22.26;52.86;100804.47;5077013;28;1910;-59
2021/05/27 08:05:06;;;;;;;;;;;;;;;22.16;53.24;100811.91;5076489;28;816;-60
2021/05/27 08:07:31;;;;;;;;;;;;;;;21.87;53.72;100807.53;5076478;28;799;-59
2021/05/27 08:09:57;;;;;;;;;;;;;;;21.59;54.57;100819.72;5076644;28;1119;-54
2021/05/27 08:12:22;;;;;;;;;;;;;;;21.46;54.24;100813.84;5075793;28;842;-64
2021/05/27 08:14:48;;;;;;;;;;;;;;;21.25;55.65;100818.13;5058123;28;1112;-49
2021/05/27 08:17:14;;;;;;;;;;;;;;;21.58;54.61;100805.06;5076621;28;827;-59
2021/05/27 08:19:39;;;;;;;;;;;;;;;21.93;53.47;100818.50;5076276;28;819;-58
2021/05/27 08:22:05;;;;;;;;;;;;;;;21.98;53.39;100808.13;5076411;28;806;-56
2021/05/27 08:24:31;;;;;;;;;;;;;;;22.05;53.17;100813.25;5076326;28;1910;-55
2021/05/27 08:26:57;;;;;;;;;;;;;;;22.02;53.16;100813.84;5076421;28;792;-62
2021/05/27 08:29:22;;;;;;;;;;;;;;;22.08;53.00;100809.88;5076029;28;1030;-60
2021/05/27 08:31:48;;;;;;;;;;;;;;;22.06;52.99;100814.88;5076469;28;767;-55
2021/05/27 08:34:13;;;;;;;;;;;;;;;22.19;52.70;100816.00;5076414;28;768;-58
2021/05/27 08:36:39;;;;;;;;;;;;;;;22.24;52.65;100812.28;5076116;28;811;-57
2021/05/27 08:39:04;;;;;;;;;;;;;;;22.25;52.62;100823.06;5076400;28;787;-63
2021/05/27 08:41:30;;;;;;;;;;;;;;;22.31;52.62;100821.00;5076387;28;795;-58
2021/05/27 08:43:55;;;;;;;;;;;;;;;21.75;53.84;100823.81;5075820;28;1906;-66
2021/05/27 08:46:21;;;;;;;;;;;;;;;21.68;54.28;100824.22;5040434;28;845;-57
2021/05/27 08:48:46;;;;;;;;;;;;;;;21.35;53.79;100826.25;5076463;28;748;-60
2021/05/27 08:51:12;;;;;;;;;;;;;;;21.14;55.95;100817.47;5076337;28;807;-60
2021/05/27 08:53:38;;;;;;;;;;;;;;;21.60;54.51;100807.53;5075776;28;998;-59
2021/05/27 08:56:04;;;;;;;;;;;;;;;21.76;53.98;100802.53;5076469;28;775;-54
2021/05/27 08:58:29;;;;;;;;;;;;;;;21.94;53.33;100800.78;5075773;28;951;-58
2021/05/27 09:00:55;;;;;;;;;;;;;;;21.90;53.44;100800.56;5075764;28;502;-52
2021/05/27 09:03:21;;;;;;;;;;;;;;;21.94;53.18;100806.31;5076382;28;1910;-59
2021/05/27 09:05:46;;;;;;;;;;;;;;;22.14;52.87;100805.03;5076047;28;491;-62
2021/05/27 09:08:34;;;;;;;;;;;;;;;22.16;52.91;100808.28;5057720;28;1230;-62
2021/05/27 09:11:00;;;;;;;;;;;;;;;22.16;52.80;100820.22;5076051;28;1136;-55
2021/05/27 09:13:25;;;;;;;;;;;;;;;21.90;53.24;100817.16;5075497;28;998;-58
2021/05/27 09:15:51;;;;;;;;;;;;;;;21.71;54.11;100820.03;5075421;28;1241;-53
2021/05/27 09:18:29;;;;;;;;;;;;;;;21.42;54.09;100818.38;5068431;28;1232;-54
2021/05/27 09:20:55;;;;;;;;;;;;;;;21.12;54.73;100817.78;5074960;28;826;-55
2021/05/27 09:23:21;;;;;;;;;;;;;;;21.56;54.51;100809.25;5059112;28;1913;-59
2021/05/27 09:25:56;;;;;;;;;;;;;;;21.68;54.10;100812.34;5079196;28;819;-58
2021/05/27 09:28:26;;;;;;;;;;;;;;;21.93;53.47;100821.28;5079905;28;779;-60
2021/05/27 09:30:54;;;;;;;;;;;;;;;22.03;53.23;100821.03;5079705;28;790;-59
2021/05/27 09:33:27;;;;;;;;;;;;;;;22.05;53.12;100818.78;5078726;28;970;-60
2021/05/27 09:35:59;;;;;;;;;;;;;;;22.07;52.78;100810.97;5079745;28;1182;-60
2021/05/27 09:38:28;;;;;;;;;;;;;;;22.01;53.17;100807.50;5079471;28;791;-60
2021/05/27 09:40:54;;;;;;;;;;;;;;;21.94;53.29;100807.13;5078839;28;792;-59
2021/05/27 09:43:23;;;;;;;;;;;;;;;21.61;54.28;100809.97;5081175;28;1965;-59
2021/05/27 09:46:08;;;;;;;;;;;;;;;21.51;54.14;100816.50;5059343;28;815;-57
2021/05/27 09:48:37;;;;;;;;;;;;;;;21.19;53.80;100826.50;5075609;28;947;-61
2021/05/27 09:51:02;;;;;;;;;;;;;;;21.52;54.61;100818.19;5070600;28;868;-59
2021/05/27 09:53:29;;;;;;;;;;;;;;;21.74;53.99;100802.84;5099250;28;783;-59
2021/05/27 09:55:54;;;;;;;;;;;;;;;22.32;52.36;100808.78;5099094;28;799;-62
2021/05/27 09:58:20;;;;;;;;;;;;;;;22.10;52.76;100810.34;5099395;28;740;-60
2021/05/27 10:00:47;;;;;;;;;;;;;;;22.02;53.11;100802.78;5099153;28;816;-60
2021/05/27 10:03:28;;;;;;;;;;;;;;;21.72;52.93;100810.59;5084613;28;1914;-60
2021/05/27 10:05:53;;;;;;;;;;;;;;;21.34;51.36;100808.81;5078985;28;814;-59
2021/05/27 10:08:20;;;;;;;;;;;;;;;21.55;54.31;100811.22;5078744;28;835;-59
2021/05/27 10:10:46;;;;;;;;;;;;;;;21.95;53.45;100813.47;5078641;28;743;-63
2021/05/27 10:13:13;;;;;;;;;;;;;;;22.31;52.44;100807.13;5057730;28;1124;-59
2021/05/27 10:15:40;;;;;;;;;;;;;;;22.02;53.03;100814.69;5058570;28;1044;-60
2021/05/27 10:18:05;;;;;;;;;;;;;;;21.83;53.53;100812.03;5047851;28;964;-60
2021/05/27 10:20:31;;;;;;;;;;;;;;;21.60;51.77;100813.06;5040200;28;769;-61
2021/05/27 10:22:57;;;;;;;;;;;;;;;21.38;52.16;100820.09;5058779;28;1991;-60
2021/05/27 10:25:22;;;;;;;;;;;;;;;21.90;53.85;100821.91;5058282;28;938;-58
2021/05/27 10:27:49;;;;;;;;;;;;;;;22.15;53.00;100818.56;5058420;28;819;-55
2021/05/27 10:30:15;;;;;;;;;;;;;;;22.34;52.07;100820.41;5040933;28;681;-65
2021/05/27 10:32:45;;;;;;;;;;;;;;;22.10;53.02;100820.63;5067241;28;952;-62
2021/05/27 10:35:11;;;;;;;;;;;;;;;22.10;53.08;100818.66;5060235;28;768;-55
2021/05/27 10:37:37;;;;;;;;;;;;;;;21.75;52.09;100809.19;5078422;28;862;-59
2021/05/27 10:40:11;;;;;;;;;;;;;;;21.38;50.96;100809.03;5078077;28;755;-65
2021/05/27 10:42:55;;;;;;;;;;;;;;;21.80;53.85;100812.66;5078556;28;779;-58
2021/05/27 10:45:24;;;;;;;;;;;;;;;22.10;53.08;100807.59;5078329;28;828;-59
2021/05/27 10:48:08;;;;;;;;;;;;;;;22.37;52.21;100805.91;5077338;28;947;-61
2021/05/27 10:51:25;;;;;;;;;;;;;;;22.11;52.91;100808.44;5078181;28;808;-60
2021/05/27 10:53:41;;;;;;;;;;;;;;;21.77;53.12;100796.69;5074476;28;1432;-56
2021/05/27 10:56:07;;;;;;;;;;;;;;;21.11;52.81;100801.50;5077926;28;854;-59
2021/05/27 10:58:48;;;;;;;;;;;;;;;21.29;53.33;100799.78;5078052;28;791;-54
2021/05/27 11:01:20;;;;;;;;;;;;;;;21.62;51.74;100795.03;5077332;28;808;-61
2021/05/27 11:03:48;;;;;;;;;;;;;;;21.59;52.34;100794.81;5041655;28;1907;-55
2021/05/27 11:06:16;;;;;;;;;;;;;;;21.70;52.49;100797.09;5057889;28;812;-58
2021/05/27 11:08:42;;;;;;;;;;;;;;;21.71;52.83;100806.19;5057188;28;756;-57
2021/05/27 11:11:33;;;;;;;;;;;;;;;21.75;53.04;100801.69;5057826;28;739;-55
2021/05/27 11:14:17;;;;;;;;;;;;;;;21.80;52.90;100798.81;5026968;28;1178;-51
2021/05/27 11:17:01;;;;;;;;;;;;;;;21.78;53.11;100797.47;5058203;28;1033;-60
2021/05/27 11:25:10;;;;;;;;;;;;;;;22.07;52.65;100788.03;5077125;28;1969;-56
2021/05/27 11:27:36;;;;;;;;;;;;;;;21.92;53.22;100784.44;5077385;28;772;-55
2021/05/27 11:30:13;;;;;;;;;;;;;;;21.83;53.49;100800.97;5077239;28;760;-58
2021/05/27 11:32:39;;;;;;;;;;;;;;;21.99;53.17;100784.03;5077199;28;989;-49
2021/05/27 11:35:04;;;;;;;;;;;;;;;21.95;53.24;100780.22;5077238;28;764;-49
2021/05/27 11:37:33;;;;;;;;;;;;;;;21.93;53.22;100776.97;5076870;28;830;-65
2021/05/27 11:39:59;;;;;;;;;;;;;;;21.43;54.73;100772.94;5077366;28;767;-48
2021/05/27 11:42:24;;;;;;;;;;;;;;;21.52;54.54;100779.44;5077304;28;747;-65
2021/05/27 11:44:56;;;;;;;;;;;;;;;21.00;54.64;100762.97;5077045;28;1910;-54
2021/05/27 11:47:22;;;;;;;;;;;;;;;21.48;54.53;100764.56;5057802;28;1010;-65
2021/05/27 11:50:19;;;;;;;;;;;;;;;21.70;53.91;100760.28;5076628;28;836;-51
2021/05/27 11:52:45;;;;;;;;;;;;;;;21.80;53.52;100750.97;5032227;28;1422;-49
2021/05/27 11:55:11;;;;;;;;;;;;;;;21.90;53.25;100749.91;5077042;28;770;-49
2021/05/27 11:57:44;;;;;;;;;;;;;;;21.85;53.25;100737.81;5058347;28;1373;-56
2021/05/27 12:00:10;;;;;;;;;;;;;;;21.83;53.34;100740.06;5058340;28;1395;-47
2021/05/27 12:02:42;;;;;;;;;;;;;;;21.93;53.13;100738.22;5077095;28;1018;-48
2021/05/27 12:05:26;;;;;;;;;;;;;;;21.94;53.00;100735.13;5077154;28;763;-47
2021/05/27 12:08:03;;;;;;;;;;;;;;;21.72;53.37;100733.13;5076375;28;776;-47
2021/05/27 12:10:35;;;;;;;;;;;;;;;22.08;52.58;100718.47;5076553;28;843;-46
2021/05/27 12:13:01;;;;;;;;;;;;;;;21.99;52.85;100720.34;5077183;28;1183;-47
2021/05/27 12:15:26;;;;;;;;;;;;;;;22.08;52.47;100712.09;5076067;28;1046;-62
2021/05/27 12:17:53;;;;;;;;;;;;;;;21.97;52.83;100714.31;5076377;28;955;-50
2021/05/27 12:20:28;;;;;;;;;;;;;;;22.04;52.47;100706.41;5076623;28;788;-61
2021/05/27 12:23:03;;;;;;;;;;;;;;;22.08;52.39;100707.41;5075994;28;1894;-61
2021/05/27 12:25:29;;;;;;;;;;;;;;;21.98;52.63;100702.94;5076521;28;752;-53
2021/05/27 12:27:55;;;;;;;;;;;;;;;21.46;54.01;100692.13;5076715;28;775;-60
2021/05/27 12:30:24;;;;;;;;;;;;;;;21.43;53.80;100684.44;5076174;28;787;-49
2021/05/27 12:32:50;;;;;;;;;;;;;;;21.08;55.17;100683.22;5076443;28;1025;-60
2021/05/27 12:35:17;;;;;;;;;;;;;;;21.59;53.95;100676.66;5059016;28;811;-59
2021/05/27 12:37:49;;;;;;;;;;;;;;;21.70;53.57;100677.28;5075815;28;732;-49
2021/05/27 12:40:19;;;;;;;;;;;;;;;21.72;53.21;100672.22;5077888;28;1421;-62
2021/05/27 12:42:45;;;;;;;;;;;;;;;21.77;53.28;100671.28;5093239;28;1902;-50
2021/05/27 12:45:25;;;;;;;;;;;;;;;21.95;52.75;100669.50;5081601;28;807;-59
2021/05/27 12:48:09;;;;;;;;;;;;;;;22.06;52.40;100665.34;5068863;28;882;-52
2021/05/27 12:50:35;;;;;;;;;;;;;;;22.04;52.50;100670.41;5076235;28;752;-52
2021/05/27 12:53:02;;;;;;;;;;;;;;;22.02;52.41;100669.88;5057774;28;940;-54
2021/05/27 12:55:33;;;;;;;;;;;;;;;22.08;52.46;100663.09;5084989;28;1617;-57
2021/05/27 12:57:59;;;;;;;;;;;;;;;22.11;52.36;100665.25;5053031;28;824;-49
2021/05/27 13:00:25;;;;;;;;;;;;;;;21.41;54.30;100663.78;5090367;28;945;-48
2021/05/27 13:03:06;;;;;;;;;;;;;;;21.33;54.05;100682.69;5089675;28;1909;-46
2021/05/27 13:05:31;;;;;;;;;;;;;;;21.11;55.08;100685.38;5079982;28;859;-52
2021/05/27 13:07:57;;;;;;;;;;;;;;;21.49;54.22;100685.97;5079512;28;1292;-66
2021/05/27 13:10:27;;;;;;;;;;;;;;;21.73;53.68;100687.72;5080123;28;819;-49